createdAt,value
2017-05-22T00:00:32.866Z,15.52
2017-05-22T00:01:13.745Z,15.57
2017-05-22T00:01:54.651Z,15.55
2017-05-22T00:02:35.545Z,15.59
2017-05-22T00:03:16.423Z,15.61
2017-05-22T00:03:57.307Z,15.61
2017-05-22T00:04:38.196Z,15.62
2017-05-22T00:05:19.093Z,15.51
2017-05-22T00:05:59.979Z,15.52
2017-05-22T00:06:40.896Z,15.47
2017-05-22T00:07:21.794Z,15.51
2017-05-22T00:08:02.687Z,15.54
2017-05-22T00:08:43.586Z,15.55
2017-05-22T00:09:24.478Z,15.58
2017-05-22T00:10:05.363Z,15.59
2017-05-22T00:10:46.262Z,15.59
2017-05-22T00:11:27.152Z,15.51
2017-05-22T00:12:08.046Z,15.51
2017-05-22T00:12:48.938Z,15.46
2017-05-22T00:13:29.819Z,15.64
2017-05-22T00:14:10.711Z,15.51
2017-05-22T00:14:51.614Z,15.54
2017-05-22T00:15:32.499Z,15.52
2017-05-22T00:16:13.416Z,15.57
2017-05-22T00:16:54.303Z,15.62
2017-05-22T00:17:35.189Z,15.49
2017-05-22T00:18:16.075Z,15.57
2017-05-22T00:18:56.961Z,15.61
2017-05-22T00:19:37.853Z,15.51
2017-05-22T00:20:18.741Z,15.58
2017-05-22T00:20:59.641Z,15.52
2017-05-22T00:21:40.515Z,15.49
2017-05-22T00:22:21.417Z,15.52
2017-05-22T00:23:02.323Z,15.57
2017-05-22T00:23:43.197Z,15.52
2017-05-22T00:24:24.089Z,15.55
2017-05-22T00:25:04.990Z,15.52
2017-05-22T00:25:45.868Z,15.49
2017-05-22T00:26:26.763Z,15.57
2017-05-22T00:27:07.657Z,15.59
2017-05-22T00:27:48.541Z,15.57
2017-05-22T00:28:29.439Z,15.57
2017-05-22T00:29:10.330Z,15.58
2017-05-22T00:29:51.223Z,15.44
2017-05-22T00:30:32.117Z,15.47
2017-05-22T00:31:13.010Z,15.49
2017-05-22T00:31:53.896Z,15.52
2017-05-22T00:32:34.788Z,15.59
2017-05-22T00:33:15.678Z,15.54
2017-05-22T00:33:56.567Z,15.54
2017-05-22T00:34:37.466Z,15.49
2017-05-22T00:35:18.378Z,15.55
2017-05-22T00:35:59.268Z,15.64
2017-05-22T00:36:40.162Z,15.44
2017-05-22T00:37:21.045Z,15.58
2017-05-22T00:38:01.932Z,15.55
2017-05-22T00:38:42.825Z,15.51
2017-05-22T00:39:23.710Z,15.52
2017-05-22T00:40:04.604Z,15.59
2017-05-22T00:40:45.507Z,15.57
2017-05-22T00:41:26.395Z,15.59
2017-05-22T00:42:07.274Z,15.58
2017-05-22T00:42:48.164Z,15.58
2017-05-22T00:43:29.061Z,15.57
2017-05-22T00:44:09.950Z,15.52
2017-05-22T00:44:50.850Z,15.49
2017-05-22T00:45:31.746Z,15.46
2017-05-22T00:46:12.626Z,15.52
2017-05-22T00:46:53.533Z,15.55
2017-05-22T00:47:34.424Z,15.57
2017-05-22T00:48:15.303Z,15.62
2017-05-22T00:48:56.196Z,15.43
2017-05-22T00:49:37.089Z,15.52
2017-05-22T00:50:17.970Z,15.49
2017-05-22T00:50:58.855Z,15.51
2017-05-22T00:51:39.745Z,15.51
2017-05-22T00:52:20.632Z,15.46
2017-05-22T00:53:01.512Z,15.46
2017-05-22T00:53:42.402Z,15.51
2017-05-22T00:54:23.300Z,15.47
2017-05-22T00:55:04.188Z,15.43
2017-05-22T00:55:45.090Z,15.44
2017-05-22T00:56:25.981Z,15.42
2017-05-22T00:57:06.863Z,15.37
2017-05-22T00:57:47.758Z,15.4
2017-05-22T00:58:28.664Z,15.21
2017-05-22T00:59:09.544Z,15.37
2017-05-22T00:59:50.430Z,15.33
2017-05-22T01:00:31.320Z,15.31
2017-05-22T01:01:12.199Z,15.33
2017-05-22T01:01:53.095Z,15.35
2017-05-22T01:02:34.000Z,15.33
2017-05-22T01:03:14.896Z,15.42
2017-05-22T01:03:55.785Z,15.25
2017-05-22T01:04:36.688Z,15.27
2017-05-22T01:05:17.571Z,15.24
2017-05-22T01:05:58.467Z,15.28
2017-05-22T01:06:39.365Z,15.25
2017-05-22T01:07:20.245Z,15.33
2017-05-22T01:08:53.519Z,15.29
2017-05-22T01:09:34.395Z,15.37
2017-05-22T01:10:15.301Z,15.37
2017-05-22T01:10:56.191Z,15.29
2017-05-22T01:11:37.095Z,15.33
2017-05-22T01:12:17.989Z,15.24
2017-05-22T01:12:58.879Z,15.37
2017-05-22T01:13:39.772Z,15.28
2017-05-22T01:14:20.669Z,15.22
2017-05-22T01:15:01.561Z,15.22
2017-05-22T01:15:42.455Z,15.11
2017-05-22T01:17:20.872Z,15.29
2017-05-22T01:18:01.761Z,15.24
2017-05-22T01:18:42.637Z,15.33
2017-05-22T01:19:23.527Z,15.39
2017-05-22T01:20:04.418Z,15.4
2017-05-22T01:20:45.360Z,15.39
2017-05-22T01:21:26.256Z,15.37
2017-05-22T01:22:07.133Z,15.39
2017-05-22T01:22:48.027Z,15.43
2017-05-22T01:23:28.902Z,15.44
2017-05-22T01:24:09.787Z,15.39
2017-05-22T01:24:50.665Z,15.43
2017-05-22T01:25:31.538Z,15.37
2017-05-22T01:26:12.430Z,15.42
2017-05-22T01:26:53.323Z,15.37
2017-05-22T01:27:34.197Z,15.33
2017-05-22T01:28:15.180Z,15.29
2017-05-22T01:28:55.973Z,15.42
2017-05-22T01:29:36.860Z,15.37
2017-05-22T01:30:17.740Z,15.35
2017-05-22T01:30:58.606Z,15.33
2017-05-22T01:31:39.499Z,15.4
2017-05-22T01:32:20.386Z,15.31
2017-05-22T01:33:01.265Z,15.29
2017-05-22T01:33:42.154Z,15.47
2017-05-22T01:34:23.064Z,15.37
2017-05-22T01:35:03.921Z,15.39
2017-05-22T01:35:44.866Z,15.4
2017-05-22T01:36:25.752Z,15.47
2017-05-22T01:37:06.650Z,15.42
2017-05-22T01:37:47.537Z,15.37
2017-05-22T01:38:28.423Z,15.44
2017-05-22T01:39:09.301Z,15.43
2017-05-22T01:39:50.186Z,15.46
2017-05-22T01:40:31.072Z,15.39
2017-05-22T01:41:11.950Z,15.39
2017-05-22T01:41:52.835Z,15.42
2017-05-22T01:42:33.718Z,15.44
2017-05-22T01:43:14.606Z,15.37
2017-05-22T01:43:55.493Z,15.4
2017-05-22T01:44:36.391Z,15.42
2017-05-22T01:45:17.334Z,15.37
2017-05-22T01:45:58.207Z,15.42
2017-05-22T01:46:39.093Z,15.36
2017-05-22T01:47:19.979Z,15.4
2017-05-22T01:48:00.867Z,15.4
2017-05-22T01:48:41.819Z,15.42
2017-05-22T01:49:22.703Z,15.36
2017-05-22T01:50:03.610Z,15.33
2017-05-22T01:50:44.493Z,15.33
2017-05-22T01:51:25.410Z,15.37
2017-05-22T01:52:06.294Z,15.39
2017-05-22T01:52:47.176Z,15.36
2017-05-22T01:53:28.076Z,15.39
2017-05-22T01:54:08.966Z,15.37
2017-05-22T01:54:49.883Z,15.4
2017-05-22T01:55:30.758Z,15.4
2017-05-22T01:56:11.638Z,15.36
2017-05-22T01:56:52.551Z,15.36
2017-05-22T01:57:33.424Z,15.49
2017-05-22T01:58:14.314Z,15.42
2017-05-22T01:58:55.196Z,15.51
2017-05-22T01:59:36.100Z,15.47
2017-05-22T02:00:16.987Z,15.44
2017-05-22T02:00:57.867Z,15.46
2017-05-22T02:01:38.760Z,15.43
2017-05-22T02:02:19.647Z,15.43
2017-05-22T02:03:00.528Z,15.46
2017-05-22T02:03:41.436Z,15.4
2017-05-22T02:04:22.317Z,15.33
2017-05-22T02:05:03.203Z,15.39
2017-05-22T02:05:44.095Z,15.35
2017-05-22T02:06:24.990Z,15.35
2017-05-22T02:07:05.882Z,15.31
2017-05-22T02:07:46.774Z,15.36
2017-05-22T02:08:27.649Z,15.37
2017-05-22T02:09:08.529Z,15.4
2017-05-22T02:09:49.429Z,15.36
2017-05-22T02:10:30.351Z,15.37
2017-05-22T02:11:11.251Z,15.43
2017-05-22T02:11:52.195Z,15.35
2017-05-22T02:12:33.005Z,15.42
2017-05-22T02:13:13.878Z,15.35
2017-05-22T02:13:56.486Z,15.37
2017-05-22T02:14:37.367Z,15.42
2017-05-22T02:15:18.283Z,15.36
2017-05-22T02:15:59.176Z,15.42
2017-05-22T02:16:40.058Z,15.29
2017-05-22T02:17:20.997Z,15.39
2017-05-22T02:18:01.887Z,15.36
2017-05-22T02:18:42.809Z,15.31
2017-05-22T02:19:26.475Z,15.36
2017-05-22T02:20:07.346Z,15.37
2017-05-22T02:20:48.295Z,15.36
2017-05-22T02:21:29.969Z,15.28
2017-05-22T02:22:10.887Z,15.25
2017-05-22T02:22:51.769Z,15.31
2017-05-22T02:23:34.474Z,15.28
2017-05-22T02:24:15.374Z,15.37
2017-05-22T02:24:56.272Z,15.39
2017-05-22T02:25:37.170Z,15.24
2017-05-22T02:26:18.039Z,15.24
2017-05-22T02:26:58.973Z,15.22
2017-05-22T02:27:39.882Z,15.18
2017-05-22T02:28:21.747Z,15.22
2017-05-22T02:29:02.690Z,15.18
2017-05-22T02:29:43.594Z,15.11
2017-05-22T02:30:24.522Z,15.1
2017-05-22T02:31:05.443Z,15.22
2017-05-22T02:31:46.335Z,15.24
2017-05-22T02:32:27.241Z,15.07
2017-05-22T02:33:10.996Z,15.11
2017-05-22T02:33:51.893Z,15.06
2017-05-22T02:34:32.779Z,15.07
2017-05-22T02:35:13.667Z,15.02
2017-05-22T02:35:54.589Z,15.14
2017-05-22T02:36:35.457Z,15.11
2017-05-22T02:37:16.358Z,15.14
2017-05-22T02:37:57.304Z,15.02
2017-05-22T02:38:38.215Z,14.99
2017-05-22T02:39:19.101Z,15.06
2017-05-22T02:39:59.994Z,15.15
2017-05-22T02:40:40.887Z,15.09
2017-05-22T02:41:21.772Z,15.11
2017-05-22T02:42:02.665Z,15.06
2017-05-22T02:42:43.552Z,15.09
2017-05-22T02:43:24.445Z,15.07
2017-05-22T02:44:05.354Z,15
2017-05-22T02:44:46.245Z,15.04
2017-05-22T02:45:27.149Z,15.07
2017-05-22T02:46:08.050Z,15
2017-05-22T02:46:48.962Z,14.99
2017-05-22T02:47:29.863Z,15.04
2017-05-22T02:48:11.484Z,14.92
2017-05-22T02:48:52.377Z,14.89
2017-05-22T02:49:33.269Z,14.96
2017-05-22T02:50:14.160Z,14.82
2017-05-22T02:50:55.083Z,14.68
2017-05-22T02:51:35.982Z,14.84
2017-05-22T02:52:16.921Z,14.81
2017-05-22T02:52:57.789Z,14.77
2017-05-22T02:53:38.656Z,14.7
2017-05-22T02:54:19.549Z,14.65
2017-05-22T02:55:00.440Z,14.78
2017-05-22T02:55:41.336Z,14.78
2017-05-22T02:56:22.230Z,14.68
2017-05-22T02:57:03.140Z,14.72
2017-05-22T02:57:44.011Z,14.77
2017-05-22T02:58:24.913Z,14.81
2017-05-22T02:59:05.811Z,14.81
2017-05-22T02:59:46.687Z,14.85
2017-05-22T03:00:27.580Z,14.88
2017-05-22T03:01:08.480Z,14.88
2017-05-22T03:01:49.362Z,14.89
2017-05-22T03:02:30.249Z,14.84
2017-05-22T03:03:11.151Z,14.82
2017-05-22T03:03:52.043Z,14.92
2017-05-22T03:04:32.944Z,14.81
2017-05-22T03:05:13.836Z,14.89
2017-05-22T03:05:54.748Z,14.89
2017-05-22T03:06:35.639Z,14.89
2017-05-22T03:07:16.533Z,14.86
2017-05-22T03:07:57.421Z,14.96
2017-05-22T03:08:38.305Z,14.89
2017-05-22T03:09:19.185Z,14.81
2017-05-22T03:10:00.070Z,14.97
2017-05-22T03:10:40.976Z,14.86
2017-05-22T03:11:21.861Z,14.85
2017-05-22T03:12:02.743Z,14.99
2017-05-22T03:12:43.633Z,14.96
2017-05-22T03:13:24.551Z,14.89
2017-05-22T03:14:05.416Z,14.77
2017-05-22T03:14:46.304Z,14.81
2017-05-22T03:15:27.202Z,14.78
2017-05-22T03:16:08.101Z,14.82
2017-05-22T03:16:48.979Z,14.72
2017-05-22T03:17:29.876Z,14.65
2017-05-22T03:18:10.763Z,14.65
2017-05-22T03:18:51.659Z,14.65
2017-05-22T03:19:32.541Z,14.68
2017-05-22T03:20:13.507Z,14.63
2017-05-22T03:21:31.356Z,14.63
2017-05-22T03:22:12.233Z,14.59
2017-05-22T03:22:53.122Z,14.59
2017-05-22T03:23:34.023Z,14.45
2017-05-22T03:24:14.905Z,14.45
2017-05-22T03:24:55.794Z,14.47
2017-05-22T03:25:36.702Z,14.47
2017-05-22T03:26:17.584Z,14.51
2017-05-22T03:26:58.503Z,14.55
2017-05-22T03:27:39.401Z,14.45
2017-05-22T03:28:20.281Z,14.47
2017-05-22T03:29:01.177Z,14.48
2017-05-22T03:29:42.058Z,14.45
2017-05-22T03:30:22.937Z,14.41
2017-05-22T03:31:03.836Z,14.36
2017-05-22T03:31:44.726Z,14.37
2017-05-22T03:32:25.612Z,14.45
2017-05-22T03:33:06.508Z,14.36
2017-05-22T03:33:47.404Z,14.35
2017-05-22T03:34:28.289Z,14.32
2017-05-22T03:35:09.179Z,14.35
2017-05-22T03:35:50.067Z,14.35
2017-05-22T03:36:30.964Z,14.33
2017-05-22T03:37:11.851Z,14.29
2017-05-22T03:37:52.752Z,14.33
2017-05-22T03:38:33.636Z,14.36
2017-05-22T03:39:14.526Z,14.32
2017-05-22T03:39:55.411Z,14.35
2017-05-22T03:40:36.321Z,14.29
2017-05-22T03:41:17.228Z,14.26
2017-05-22T03:41:58.105Z,14.35
2017-05-22T03:42:38.992Z,14.33
2017-05-22T03:43:19.902Z,14.48
2017-05-22T03:44:00.775Z,14.4
2017-05-22T03:44:41.680Z,14.35
2017-05-22T03:45:22.576Z,14.33
2017-05-22T03:46:03.460Z,14.37
2017-05-22T03:46:44.368Z,14.43
2017-05-22T03:47:25.280Z,14.44
2017-05-22T03:48:06.149Z,14.37
2017-05-22T03:48:47.039Z,14.45
2017-05-22T03:49:27.932Z,14.41
2017-05-22T03:50:08.808Z,14.41
2017-05-22T03:50:49.687Z,14.35
2017-05-22T03:51:30.582Z,14.35
2017-05-22T03:52:11.477Z,14.3
2017-05-22T03:52:52.364Z,14.33
2017-05-22T03:53:33.257Z,14.4
2017-05-22T03:54:14.159Z,14.35
2017-05-22T03:54:55.057Z,14.33
2017-05-22T03:55:35.945Z,14.3
2017-05-22T03:56:16.844Z,14.36
2017-05-22T03:57:45.931Z,14.32
2017-05-22T03:58:26.823Z,14.29
2017-05-22T03:59:07.716Z,14.32
2017-05-22T03:59:48.596Z,14.32
2017-05-22T04:00:29.474Z,14.41
2017-05-22T04:01:10.357Z,14.36
2017-05-22T04:01:51.271Z,14.32
2017-05-22T04:02:32.137Z,14.3
2017-05-22T04:03:13.039Z,14.33
2017-05-22T04:03:53.952Z,14.37
2017-05-22T04:04:34.821Z,14.36
2017-05-22T04:05:15.711Z,14.35
2017-05-22T04:05:56.609Z,14.36
2017-05-22T04:06:37.494Z,14.4
2017-05-22T04:07:18.388Z,14.4
2017-05-22T04:07:59.294Z,14.54
2017-05-22T04:08:40.172Z,14.5
2017-05-22T04:09:21.068Z,14.51
2017-05-22T04:10:01.950Z,14.51
2017-05-22T04:10:42.829Z,14.47
2017-05-22T04:11:23.709Z,14.51
2017-05-22T04:12:04.602Z,14.41
2017-05-22T04:12:45.504Z,14.37
2017-05-22T04:13:26.384Z,14.47
2017-05-22T04:14:07.291Z,14.45
2017-05-22T04:14:48.180Z,14.47
2017-05-22T04:15:29.091Z,14.5
2017-05-22T04:16:10.022Z,14.4
2017-05-22T04:16:50.944Z,14.43
2017-05-22T04:17:31.827Z,14.45
2017-05-22T04:18:12.712Z,14.41
2017-05-22T04:18:53.618Z,14.35
2017-05-22T04:19:34.502Z,14.45
2017-05-22T04:20:15.383Z,14.47
2017-05-22T04:20:56.299Z,14.45
2017-05-22T04:21:37.231Z,14.44
2017-05-22T04:22:18.130Z,14.43
2017-05-22T04:22:59.127Z,14.4
2017-05-22T04:23:39.975Z,14.44
2017-05-22T04:24:20.869Z,14.4
2017-05-22T04:25:01.785Z,14.35
2017-05-22T04:25:42.657Z,14.35
2017-05-22T04:26:23.548Z,14.37
2017-05-22T04:27:04.435Z,14.4
2017-05-22T04:27:45.314Z,14.45
2017-05-22T04:28:26.192Z,14.41
2017-05-22T04:29:07.096Z,14.36
2017-05-22T04:29:47.981Z,14.35
2017-05-22T04:30:28.863Z,14.33
2017-05-22T04:31:09.757Z,14.33
2017-05-22T04:31:50.660Z,14.35
2017-05-22T04:32:31.568Z,14.4
2017-05-22T04:33:12.467Z,14.43
2017-05-22T04:33:53.357Z,14.36
2017-05-22T04:34:34.254Z,14.36
2017-05-22T04:35:15.140Z,14.4
2017-05-22T04:35:56.033Z,14.45
2017-05-22T04:36:36.969Z,14.51
2017-05-22T04:37:17.859Z,14.48
2017-05-22T04:37:58.759Z,14.43
2017-05-22T04:38:39.651Z,14.45
2017-05-22T04:39:20.528Z,14.48
2017-05-22T04:40:01.420Z,14.55
2017-05-22T04:40:42.361Z,14.44
2017-05-22T04:41:23.240Z,14.45
2017-05-22T04:42:04.128Z,14.55
2017-05-22T04:42:45.070Z,14.55
2017-05-22T04:43:25.970Z,14.48
2017-05-22T04:44:06.881Z,14.55
2017-05-22T04:44:47.763Z,14.53
2017-05-22T04:45:28.641Z,14.58
2017-05-22T04:46:10.105Z,14.48
2017-05-22T04:46:50.994Z,14.63
2017-05-22T04:47:31.887Z,14.65
2017-05-22T04:48:12.773Z,14.65
2017-05-22T04:48:53.663Z,14.69
2017-05-22T04:49:34.556Z,14.73
2017-05-22T04:50:15.454Z,14.69
2017-05-22T04:50:56.346Z,14.69
2017-05-22T04:51:37.238Z,14.68
2017-05-22T04:52:18.145Z,14.77
2017-05-22T04:52:59.046Z,14.62
2017-05-22T04:53:39.934Z,14.65
2017-05-22T04:54:20.817Z,14.72
2017-05-22T04:55:01.701Z,14.68
2017-05-22T04:55:42.587Z,14.69
2017-05-22T04:56:23.486Z,14.69
2017-05-22T04:57:04.369Z,14.68
2017-05-22T04:57:45.264Z,14.65
2017-05-22T04:58:26.150Z,14.72
2017-05-22T04:59:07.038Z,14.69
2017-05-22T04:59:47.938Z,14.73
2017-05-22T05:00:28.821Z,14.77
2017-05-22T05:01:09.728Z,14.82
2017-05-22T05:01:50.619Z,14.82
2017-05-22T05:02:31.512Z,14.89
2017-05-22T05:03:12.412Z,14.84
2017-05-22T05:03:53.306Z,14.82
2017-05-22T05:04:34.197Z,14.85
2017-05-22T05:05:15.080Z,14.88
2017-05-22T05:05:56.095Z,14.94
2017-05-22T05:06:36.971Z,14.89
2017-05-22T05:07:17.859Z,14.97
2017-05-22T05:07:58.760Z,14.97
2017-05-22T05:08:39.637Z,15.07
2017-05-22T05:09:20.531Z,15.04
2017-05-22T05:10:01.427Z,15.17
2017-05-22T05:10:42.300Z,15.11
2017-05-22T05:11:23.261Z,15.17
2017-05-22T05:12:04.175Z,15.11
2017-05-22T05:12:45.075Z,15.18
2017-05-22T05:13:25.967Z,15.21
2017-05-22T05:14:06.881Z,15.33
2017-05-22T05:14:47.777Z,15.24
2017-05-22T05:15:28.660Z,15.33
2017-05-22T05:16:09.571Z,15.39
2017-05-22T05:16:50.461Z,15.35
2017-05-22T05:17:31.349Z,15.46
2017-05-22T05:18:12.235Z,15.4
2017-05-22T05:18:53.109Z,15.51
2017-05-22T05:19:33.991Z,15.62
2017-05-22T05:20:14.879Z,15.46
2017-05-22T05:20:55.775Z,15.59
2017-05-22T05:21:36.699Z,15.73
2017-05-22T05:22:17.604Z,15.9
2017-05-22T05:22:58.487Z,15.75
2017-05-22T05:23:39.372Z,15.75
2017-05-22T05:24:20.263Z,15.92
2017-05-22T05:25:01.171Z,15.94
2017-05-22T05:25:42.049Z,16.08
2017-05-22T05:26:22.969Z,16.12
2017-05-22T05:27:03.840Z,16.26
2017-05-22T05:27:44.730Z,16.31
2017-05-22T05:28:25.618Z,16.41
2017-05-22T05:29:06.497Z,16.39
2017-05-22T05:31:25.438Z,16.47
2017-05-22T05:32:06.326Z,16.43
2017-05-22T05:32:47.215Z,16.33
2017-05-22T05:33:28.114Z,16.5
2017-05-22T05:34:09.014Z,16.47
2017-05-22T05:34:49.899Z,16.61
2017-05-22T05:35:30.797Z,16.5
2017-05-22T05:36:11.678Z,16.39
2017-05-22T05:36:52.557Z,16.69
2017-05-22T05:37:33.461Z,16.83
2017-05-22T05:38:14.358Z,16.9
2017-05-22T05:38:55.237Z,17.01
2017-05-22T05:39:36.148Z,17.04
2017-05-22T05:40:17.091Z,17.06
2017-05-22T05:40:57.961Z,17.14
2017-05-22T05:41:38.875Z,17.19
2017-05-22T05:42:19.768Z,17.24
2017-05-22T05:43:00.648Z,17.26
2017-05-22T05:43:41.539Z,17.24
2017-05-22T05:44:22.439Z,17.27
2017-05-22T05:45:03.341Z,17.26
2017-05-22T05:45:44.304Z,17.23
2017-05-22T05:46:25.193Z,17.05
2017-05-22T05:47:06.077Z,17.16
2017-05-22T05:47:46.971Z,17.27
2017-05-22T05:48:27.863Z,17.36
2017-05-22T05:49:08.774Z,17.44
2017-05-22T05:49:49.660Z,17.6
2017-05-22T05:50:30.551Z,17.49
2017-05-22T05:51:11.442Z,17.64
2017-05-22T05:51:52.333Z,17.64
2017-05-22T05:52:33.234Z,17.67
2017-05-22T05:53:14.127Z,17.8
2017-05-22T05:53:55.019Z,17.82
2017-05-22T05:54:35.910Z,17.74
2017-05-22T05:55:16.804Z,17.8
2017-05-22T05:55:57.702Z,17.74
2017-05-22T05:56:38.653Z,17.6
2017-05-22T05:57:19.541Z,17.64
2017-05-22T05:58:00.436Z,17.78
2017-05-22T05:58:41.321Z,17.82
2017-05-22T05:59:22.234Z,17.8
2017-05-22T06:00:03.126Z,17.8
2017-05-22T06:00:44.017Z,17.85
2017-05-22T06:01:24.905Z,17.86
2017-05-22T06:02:05.802Z,17.89
2017-05-22T06:02:46.692Z,17.95
2017-05-22T06:03:27.597Z,17.87
2017-05-22T06:04:08.495Z,17.98
2017-05-22T06:04:49.373Z,18.03
2017-05-22T06:05:30.254Z,18.04
2017-05-22T06:06:11.137Z,18.1
2017-05-22T06:06:52.047Z,18.16
2017-05-22T06:07:32.932Z,18.2
2017-05-22T06:08:13.841Z,18.25
2017-05-22T06:08:54.747Z,18.29
2017-05-22T06:09:35.637Z,18.29
2017-05-22T06:10:16.525Z,18.45
2017-05-22T06:10:57.465Z,18.44
2017-05-22T06:11:38.364Z,18.55
2017-05-22T06:12:19.273Z,18.49
2017-05-22T06:13:38.147Z,18.75
2017-05-22T06:14:19.007Z,18.88
2017-05-22T06:14:59.916Z,18.84
2017-05-22T06:15:40.811Z,18.8
2017-05-22T06:16:21.709Z,18.81
2017-05-22T06:17:02.677Z,18.95
2017-05-22T06:17:43.584Z,19.12
2017-05-22T06:18:24.547Z,19.27
2017-05-22T06:19:05.462Z,19.45
2017-05-22T06:19:46.351Z,19.66
2017-05-22T06:20:27.238Z,20.07
2017-05-22T06:21:08.129Z,20.28
2017-05-22T06:21:49.017Z,20.66
2017-05-22T06:22:29.912Z,20.9
2017-05-22T06:23:10.799Z,21.12
2017-05-22T06:23:51.682Z,21.12
2017-05-22T06:24:32.572Z,21.14
2017-05-22T06:25:13.486Z,21.22
2017-05-22T06:25:54.360Z,21.72
2017-05-22T06:26:35.253Z,21.96
2017-05-22T06:27:16.154Z,22.1
2017-05-22T06:27:57.044Z,22.3
2017-05-22T06:28:37.951Z,22.47
2017-05-22T06:29:18.868Z,22.63
2017-05-22T06:29:59.758Z,22.84
2017-05-22T06:30:40.662Z,23.17
2017-05-22T06:31:21.563Z,23.54
2017-05-22T06:32:02.477Z,23.91
2017-05-22T06:32:43.384Z,24.02
2017-05-22T06:33:24.275Z,24.23
2017-05-22T06:34:05.176Z,24.58
2017-05-22T06:35:33.306Z,24.88
2017-05-22T06:36:14.201Z,25.13
2017-05-22T06:36:55.097Z,25.23
2017-05-22T06:37:36.015Z,24.88
2017-05-22T06:38:16.901Z,24.16
2017-05-22T06:38:57.806Z,23.65
2017-05-22T06:39:38.700Z,23.87
2017-05-22T06:40:19.611Z,23.43
2017-05-22T06:41:00.513Z,23.5
2017-05-22T06:41:41.444Z,23.83
2017-05-22T06:42:22.387Z,24.16
2017-05-22T06:43:03.287Z,24.4
2017-05-22T06:43:44.177Z,24.66
2017-05-22T06:44:25.078Z,24.78
2017-05-22T06:45:05.980Z,24.14
2017-05-22T06:45:46.875Z,23.41
2017-05-22T06:46:27.779Z,24.39
2017-05-22T06:47:08.677Z,24.73
2017-05-22T06:47:49.587Z,25.13
2017-05-22T06:48:30.548Z,25.17
2017-05-22T06:49:11.441Z,25.33
2017-05-22T06:49:52.349Z,25.6
2017-05-22T06:50:33.253Z,25.85
2017-05-22T06:51:14.160Z,25.69
2017-05-22T06:51:55.063Z,25.68
2017-05-22T06:52:35.964Z,25.95
2017-05-22T06:53:16.871Z,26.26
2017-05-22T06:53:57.863Z,26.52
2017-05-22T06:54:38.737Z,26.48
2017-05-22T06:55:19.651Z,26.48
2017-05-22T06:56:00.561Z,26.51
2017-05-22T06:56:41.468Z,26.52
2017-05-22T06:57:22.376Z,26.41
2017-05-22T06:58:03.276Z,26.09
2017-05-22T06:58:44.182Z,26.05
2017-05-22T06:59:25.074Z,26.25
2017-05-22T07:00:05.973Z,26.18
2017-05-22T07:00:46.872Z,26.18
2017-05-22T07:01:27.779Z,25.93
2017-05-22T07:02:08.688Z,25.95
2017-05-22T07:02:49.598Z,26.16
2017-05-22T07:03:30.510Z,26.09
2017-05-22T07:04:11.411Z,26.4
2017-05-22T07:04:52.323Z,26.51
2017-05-22T07:05:33.233Z,26.55
2017-05-22T07:06:14.140Z,26.53
2017-05-22T07:06:55.055Z,26.15
2017-05-22T07:07:35.996Z,25.87
2017-05-22T07:08:16.908Z,25.7
2017-05-22T07:08:57.855Z,25.58
2017-05-22T07:09:38.768Z,25.46
2017-05-22T07:10:19.675Z,25.46
2017-05-22T07:11:00.604Z,25.59
2017-05-22T07:11:41.492Z,25.58
2017-05-22T07:12:22.396Z,25.69
2017-05-22T07:13:03.287Z,25.8
2017-05-22T07:13:45.263Z,25.75
2017-05-22T07:14:26.092Z,25.65
2017-05-22T07:15:06.947Z,24.57
2017-05-22T07:15:47.830Z,23.92
2017-05-22T07:16:28.729Z,24.45
2017-05-22T07:17:09.665Z,24.8
2017-05-22T07:17:50.571Z,24.89
2017-05-22T07:18:31.476Z,24.76
2017-05-22T07:19:12.401Z,24.88
2017-05-22T07:19:53.349Z,24.81
2017-05-22T07:20:34.239Z,24.6
2017-05-22T07:21:15.164Z,24.55
2017-05-22T07:21:56.073Z,24.43
2017-05-22T07:22:36.980Z,24.55
2017-05-22T07:23:17.866Z,24.6
2017-05-22T07:24:46.325Z,25.4
2017-05-22T07:25:27.224Z,25.6
2017-05-22T07:26:08.137Z,25.84
2017-05-22T07:26:49.048Z,26.13
2017-05-22T07:27:29.953Z,26.48
2017-05-22T07:28:10.854Z,26.7
2017-05-22T07:28:51.774Z,26.03
2017-05-22T07:29:32.656Z,26.45
2017-05-22T07:30:13.533Z,26.52
2017-05-22T07:30:54.428Z,26.71
2017-05-22T07:31:35.336Z,26.71
2017-05-22T07:32:16.243Z,26.96
2017-05-22T07:32:57.201Z,26.88
2017-05-22T07:33:38.126Z,25.98
2017-05-22T07:34:18.996Z,26.48
2017-05-22T07:34:59.873Z,24.91
2017-05-22T07:35:40.786Z,24.43
2017-05-22T07:36:21.714Z,23.51
2017-05-22T07:37:02.605Z,23.39
2017-05-22T07:37:44.339Z,24.21
2017-05-22T07:38:25.235Z,24.18
2017-05-22T07:39:06.140Z,24.84
2017-05-22T07:39:47.060Z,24.68
2017-05-22T07:40:27.977Z,24.26
2017-05-22T07:41:08.894Z,22.75
2017-05-22T07:41:49.809Z,22.28
2017-05-22T07:42:30.702Z,23.09
2017-05-22T07:43:11.600Z,23.32
2017-05-22T07:43:52.504Z,23.88
2017-05-22T07:44:33.409Z,23.92
2017-05-22T07:45:14.317Z,24.48
2017-05-22T07:45:55.226Z,25.26
2017-05-22T07:46:36.135Z,25.59
2017-05-22T07:47:17.045Z,25.1
2017-05-22T07:47:57.946Z,25.18
2017-05-22T07:48:38.851Z,25.23
2017-05-22T07:49:19.752Z,24.63
2017-05-22T07:51:14.411Z,24.26
2017-05-22T07:51:55.279Z,23.92
2017-05-22T07:52:36.173Z,23.78
2017-05-22T07:53:17.072Z,24.48
2017-05-22T07:53:57.974Z,25.14
2017-05-22T07:54:38.859Z,24.77
2017-05-22T07:55:19.743Z,24.13
2017-05-22T07:56:00.658Z,24.06
2017-05-22T07:56:41.565Z,24.58
2017-05-22T07:57:22.476Z,25.41
2017-05-22T07:58:03.364Z,26
2017-05-22T07:58:45.226Z,26.48
2017-05-22T07:59:26.122Z,26.77
2017-05-22T08:00:59.513Z,27.63
2017-05-22T08:01:40.363Z,26.73
2017-05-22T08:02:21.263Z,26.83
2017-05-22T08:03:02.233Z,25.65
2017-05-22T08:03:43.063Z,26.58
2017-05-22T08:04:23.972Z,26.66
2017-05-22T08:05:04.859Z,25.81
2017-05-22T08:05:45.773Z,25.25
2017-05-22T08:06:26.680Z,24.89
2017-05-22T08:07:07.588Z,25.08
2017-05-22T08:07:48.487Z,26.06
2017-05-22T08:08:29.386Z,26.51
2017-05-22T08:09:10.296Z,26.9
2017-05-22T08:09:51.204Z,26.56
2017-05-22T08:10:32.182Z,25.5
2017-05-22T08:11:13.095Z,24.91
2017-05-22T08:11:54.009Z,25.8
2017-05-22T08:12:34.919Z,26.52
2017-05-22T08:13:15.839Z,27.18
2017-05-22T08:13:56.770Z,27.2
2017-05-22T08:14:37.679Z,27.17
2017-05-22T08:15:18.583Z,27.45
2017-05-22T08:15:59.498Z,27.7
2017-05-22T08:16:40.396Z,27.87
2017-05-22T08:17:21.284Z,28.1
2017-05-22T08:18:02.194Z,27.93
2017-05-22T08:18:43.103Z,28.08
2017-05-22T08:19:24.004Z,27.33
2017-05-22T08:20:04.919Z,27.12
2017-05-22T08:20:45.810Z,27.25
2017-05-22T08:21:26.709Z,26.26
2017-05-22T08:22:07.630Z,26.84
2017-05-22T08:22:48.517Z,27.11
2017-05-22T08:23:29.414Z,26.68
2017-05-22T08:24:10.307Z,27.3
2017-05-22T08:24:51.204Z,27.7
2017-05-22T08:26:44.964Z,28.23
2017-05-22T08:27:25.867Z,28.39
2017-05-22T08:28:06.772Z,28.62
2017-05-22T08:28:47.677Z,28.66
2017-05-22T08:29:28.617Z,29.1
2017-05-22T08:30:09.524Z,29.16
2017-05-22T08:30:50.413Z,29.35
2017-05-22T08:31:31.332Z,29.34
2017-05-22T08:32:12.244Z,29.57
2017-05-22T08:32:53.128Z,29.47
2017-05-22T08:34:26.710Z,29.44
2017-05-22T08:35:07.613Z,29.44
2017-05-22T08:35:48.519Z,29.51
2017-05-22T08:36:29.464Z,29.75
2017-05-22T08:37:10.395Z,30.06
2017-05-22T08:37:51.307Z,30.51
2017-05-22T08:38:32.247Z,30.77
2017-05-22T08:39:13.151Z,31.09
2017-05-22T08:39:54.070Z,31.24
2017-05-22T08:40:34.958Z,31.17
2017-05-22T08:41:15.862Z,31.18
2017-05-22T08:41:56.779Z,31.17
2017-05-22T08:42:37.677Z,31.31
2017-05-22T08:43:18.587Z,31.49
2017-05-22T08:43:59.493Z,30.83
2017-05-22T08:44:40.404Z,28.81
2017-05-22T08:45:21.363Z,30.12
2017-05-22T08:46:03.951Z,30.81
2017-05-22T08:46:44.868Z,31.27
2017-05-22T08:47:25.819Z,30.35
2017-05-22T08:48:06.730Z,27.71
2017-05-22T08:48:47.694Z,28.66
2017-05-22T08:49:28.632Z,29.84
2017-05-22T08:50:09.543Z,30.1
2017-05-22T08:50:50.444Z,31.21
2017-05-22T08:51:31.345Z,31.7
2017-05-22T08:52:12.244Z,30.68
2017-05-22T08:52:53.175Z,30.83
2017-05-22T08:53:34.085Z,31.17
2017-05-22T08:55:08.442Z,32.11
2017-05-22T08:55:49.355Z,32.51
2017-05-22T08:56:30.332Z,32.4
2017-05-22T08:57:11.231Z,31.76
2017-05-22T08:57:52.143Z,31.36
2017-05-22T08:58:33.053Z,31.28
2017-05-22T08:59:13.983Z,31.15
2017-05-22T08:59:54.900Z,30.92
2017-05-22T09:00:35.832Z,30.53
2017-05-22T09:01:16.737Z,30.46